sensor_id;sensor_type;location;lat;lon;timestamp;P1;durP1;ratioP1;P2;durP2;ratioP2
41323;SDS011;27073;51.128;4.220;2022-12-20T00:00:13;4.80;;;2.35;;
41323;SDS011;27073;51.128;4.220;2022-12-20T00:02:39;3.33;;;2.00;;
41323;SDS011;27073;51.128;4.220;2022-12-20T00:05:05;3.78;;;1.98;;
41323;SDS011;27073;51.128;4.220;2022-12-20T00:07:31;4.50;;;2.13;;
41323;SDS011;27073;51.128;4.220;2022-12-20T00:09:57;4.50;;;2.17;;
41323;SDS011;27073;51.128;4.220;2022-12-20T00:12:22;4.78;;;2.10;;
41323;SDS011;27073;51.128;4.220;2022-12-20T00:14:48;4.97;;;2.22;;
41323;SDS011;27073;51.128;4.220;2022-12-20T00:17:14;4.43;;;2.50;;
41323;SDS011;27073;51.128;4.220;2022-12-20T00:19:39;5.13;;;2.67;;
41323;SDS011;27073;51.128;4.220;2022-12-20T00:22:07;4.88;;;2.35;;
41323;SDS011;27073;51.128;4.220;2022-12-20T00:24:33;3.92;;;2.05;;
41323;SDS011;27073;51.128;4.220;2022-12-20T00:26:59;3.33;;;2.20;;
41323;SDS011;27073;51.128;4.220;2022-12-20T00:29:25;3.35;;;1.98;;
41323;SDS011;27073;51.128;4.220;2022-12-20T00:31:50;5.38;;;2.80;;
41323;SDS011;27073;51.128;4.220;2022-12-20T00:34:17;3.95;;;2.05;;
41323;SDS011;27073;51.128;4.220;2022-12-20T00:36:42;2.85;;;2.08;;
41323;SDS011;27073;51.128;4.220;2022-12-20T00:39:08;4.15;;;2.40;;
41323;SDS011;27073;51.128;4.220;2022-12-20T00:41:34;5.10;;;2.15;;
41323;SDS011;27073;51.128;4.220;2022-12-20T00:44:01;4.43;;;2.50;;
41323;SDS011;27073;51.128;4.220;2022-12-20T00:46:28;4.60;;;2.38;;
41323;SDS011;27073;51.128;4.220;2022-12-20T00:48:57;6.35;;;2.50;;
41323;SDS011;27073;51.128;4.220;2022-12-20T00:51:24;3.85;;;2.50;;
41323;SDS011;27073;51.128;4.220;2022-12-20T00:53:51;4.63;;;2.63;;
41323;SDS011;27073;51.128;4.220;2022-12-20T00:56:18;3.70;;;2.42;;
41323;SDS011;27073;51.128;4.220;2022-12-20T00:58:44;4.05;;;2.55;;
41323;SDS011;27073;51.128;4.220;2022-12-20T01:01:15;4.45;;;2.78;;
41323;SDS011;27073;51.128;4.220;2022-12-20T01:03:43;8.15;;;2.55;;
41323;SDS011;27073;51.128;4.220;2022-12-20T01:06:11;5.60;;;2.80;;
41323;SDS011;27073;51.128;4.220;2022-12-20T01:08:37;4.90;;;2.40;;
41323;SDS011;27073;51.128;4.220;2022-12-20T01:11:04;5.90;;;2.65;;
41323;SDS011;27073;51.128;4.220;2022-12-20T01:13:32;6.00;;;2.45;;
41323;SDS011;27073;51.128;4.220;2022-12-20T01:16:04;6.28;;;2.38;;
41323;SDS011;27073;51.128;4.220;2022-12-20T01:18:53;4.90;;;2.33;;
41323;SDS011;27073;51.128;4.220;2022-12-20T01:21:21;5.90;;;2.97;;
41323;SDS011;27073;51.128;4.220;2022-12-20T01:23:48;8.23;;;2.70;;
41323;SDS011;27073;51.128;4.220;2022-12-20T01:26:15;4.22;;;2.55;;
41323;SDS011;27073;51.128;4.220;2022-12-20T01:28:44;4.95;;;2.08;;
41323;SDS011;27073;51.128;4.220;2022-12-20T01:31:12;6.35;;;2.80;;
41323;SDS011;27073;51.128;4.220;2022-12-20T01:33:40;4.10;;;2.30;;
41323;SDS011;27073;51.128;4.220;2022-12-20T01:36:10;3.85;;;2.55;;
41323;SDS011;27073;51.128;4.220;2022-12-20T01:38:38;5.55;;;3.05;;
41323;SDS011;27073;51.128;4.220;2022-12-20T01:41:04;5.50;;;2.05;;
41323;SDS011;27073;51.128;4.220;2022-12-20T01:46:16;3.70;;;2.13;;
41323;SDS011;27073;51.128;4.220;2022-12-20T01:48:43;2.90;;;2.00;;
41323;SDS011;27073;51.128;4.220;2022-12-20T01:51:13;3.42;;;2.05;;
41323;SDS011;27073;51.128;4.220;2022-12-20T01:53:39;4.80;;;2.00;;
41323;SDS011;27073;51.128;4.220;2022-12-20T01:56:05;4.50;;;2.50;;
41323;SDS011;27073;51.128;4.220;2022-12-20T01:58:33;4.80;;;2.35;;
41323;SDS011;27073;51.128;4.220;2022-12-20T02:01:02;5.38;;;2.50;;
41323;SDS011;27073;51.128;4.220;2022-12-20T02:03:28;4.57;;;1.95;;
41323;SDS011;27073;51.128;4.220;2022-12-20T02:05:56;4.20;;;2.45;;
41323;SDS011;27073;51.128;4.220;2022-12-20T02:08:22;5.55;;;1.95;;
41323;SDS011;27073;51.128;4.220;2022-12-20T02:10:57;4.47;;;2.10;;
41323;SDS011;27073;51.128;4.220;2022-12-20T02:13:59;3.65;;;2.20;;
41323;SDS011;27073;51.128;4.220;2022-12-20T02:16:34;4.28;;;1.70;;
41323;SDS011;27073;51.128;4.220;2022-12-20T02:21:58;3.70;;;1.75;;
41323;SDS011;27073;51.128;4.220;2022-12-20T02:30:55;4.78;;;2.15;;
41323;SDS011;27073;51.128;4.220;2022-12-20T02:33:23;5.75;;;2.47;;
41323;SDS011;27073;51.128;4.220;2022-12-20T02:35:51;3.60;;;1.98;;
41323;SDS011;27073;51.128;4.220;2022-12-20T02:41:58;4.80;;;1.88;;
41323;SDS011;27073;51.128;4.220;2022-12-20T02:44:06;5.97;;;2.65;;
41323;SDS011;27073;51.128;4.220;2022-12-20T02:46:57;6.40;;;2.50;;
41323;SDS011;27073;51.128;4.220;2022-12-20T02:49:28;5.57;;;3.13;;
41323;SDS011;27073;51.128;4.220;2022-12-20T02:51:56;3.83;;;2.00;;
41323;SDS011;27073;51.128;4.220;2022-12-20T02:54:25;3.80;;;2.10;;
41323;SDS011;27073;51.128;4.220;2022-12-20T02:56:54;4.97;;;2.00;;
41323;SDS011;27073;51.128;4.220;2022-12-20T02:59:29;4.22;;;1.92;;
41323;SDS011;27073;51.128;4.220;2022-12-20T03:02:02;3.10;;;1.63;;
41323;SDS011;27073;51.128;4.220;2022-12-20T03:04:30;4.90;;;2.20;;
41323;SDS011;27073;51.128;4.220;2022-12-20T03:09:29;4.80;;;2.15;;
41323;SDS011;27073;51.128;4.220;2022-12-20T03:11:56;4.30;;;1.85;;
41323;SDS011;27073;51.128;4.220;2022-12-20T03:14:22;3.40;;;1.85;;
41323;SDS011;27073;51.128;4.220;2022-12-20T03:16:50;3.25;;;1.85;;
41323;SDS011;27073;51.128;4.220;2022-12-20T03:19:16;4.13;;;2.10;;
41323;SDS011;27073;51.128;4.220;2022-12-20T03:21:42;5.85;;;2.00;;
41323;SDS011;27073;51.128;4.220;2022-12-20T03:24:08;3.25;;;1.90;;
41323;SDS011;27073;51.128;4.220;2022-12-20T03:26:36;3.63;;;1.65;;
41323;SDS011;27073;51.128;4.220;2022-12-20T03:29:02;6.68;;;1.90;;
41323;SDS011;27073;51.128;4.220;2022-12-20T03:31:28;5.20;;;2.25;;
41323;SDS011;27073;51.128;4.220;2022-12-20T03:33:54;5.28;;;1.83;;
41323;SDS011;27073;51.128;4.220;2022-12-20T03:36:21;3.75;;;1.88;;
41323;SDS011;27073;51.128;4.220;2022-12-20T03:38:51;4.25;;;2.08;;
41323;SDS011;27073;51.128;4.220;2022-12-20T03:41:18;4.53;;;2.90;;
41323;SDS011;27073;51.128;4.220;2022-12-20T03:43:46;4.43;;;1.85;;
41323;SDS011;27073;51.128;4.220;2022-12-20T03:46:12;5.13;;;2.22;;
41323;SDS011;27073;51.128;4.220;2022-12-20T03:48:38;4.68;;;2.10;;
41323;SDS011;27073;51.128;4.220;2022-12-20T03:51:08;6.13;;;2.03;;
41323;SDS011;27073;51.128;4.220;2022-12-20T03:53:34;3.53;;;1.92;;
41323;SDS011;27073;51.128;4.220;2022-12-20T03:56:00;5.80;;;2.10;;
41323;SDS011;27073;51.128;4.220;2022-12-20T03:58:26;4.90;;;2.20;;
41323;SDS011;27073;51.128;4.220;2022-12-20T04:00:52;3.85;;;2.05;;
41323;SDS011;27073;51.128;4.220;2022-12-20T04:03:37;3.08;;;1.67;;
41323;SDS011;27073;51.128;4.220;2022-12-20T04:06:03;7.43;;;2.58;;
41323;SDS011;27073;51.128;4.220;2022-12-20T04:08:29;4.40;;;1.98;;
41323;SDS011;27073;51.128;4.220;2022-12-20T04:10:54;3.75;;;1.80;;
41323;SDS011;27073;51.128;4.220;2022-12-20T04:13:46;3.75;;;2.10;;
41323;SDS011;27073;51.128;4.220;2022-12-20T04:16:17;4.90;;;2.03;;
41323;SDS011;27073;51.128;4.220;2022-12-20T04:21:13;3.65;;;2.17;;
41323;SDS011;27073;51.128;4.220;2022-12-20T04:23:43;3.88;;;2.00;;
41323;SDS011;27073;51.128;4.220;2022-12-20T04:26:08;5.90;;;2.15;;
41323;SDS011;27073;51.128;4.220;2022-12-20T04:28:35;5.78;;;1.95;;
41323;SDS011;27073;51.128;4.220;2022-12-20T04:31:01;5.30;;;2.22;;
41323;SDS011;27073;51.128;4.220;2022-12-20T04:33:31;3.45;;;1.95;;
41323;SDS011;27073;51.128;4.220;2022-12-20T04:35:57;4.13;;;1.90;;
41323;SDS011;27073;51.128;4.220;2022-12-20T04:38:23;6.72;;;2.20;;
41323;SDS011;27073;51.128;4.220;2022-12-20T04:40:51;4.07;;;1.63;;
41323;SDS011;27073;51.128;4.220;2022-12-20T04:43:19;4.47;;;2.00;;
41323;SDS011;27073;51.128;4.220;2022-12-20T04:45:47;4.00;;;1.73;;
41323;SDS011;27073;51.128;4.220;2022-12-20T04:48:14;4.07;;;2.08;;
41323;SDS011;27073;51.128;4.220;2022-12-20T04:50:40;4.90;;;2.40;;
41323;SDS011;27073;51.128;4.220;2022-12-20T04:53:07;4.93;;;1.58;;
41323;SDS011;27073;51.128;4.220;2022-12-20T04:55:53;5.75;;;2.47;;
41323;SDS011;27073;51.128;4.220;2022-12-20T04:58:19;7.68;;;2.45;;
41323;SDS011;27073;51.128;4.220;2022-12-20T05:00:46;3.63;;;1.50;;
41323;SDS011;27073;51.128;4.220;2022-12-20T05:03:24;5.65;;;2.40;;
41323;SDS011;27073;51.128;4.220;2022-12-20T05:05:51;3.67;;;1.60;;
41323;SDS011;27073;51.128;4.220;2022-12-20T05:08:17;4.13;;;2.08;;
41323;SDS011;27073;51.128;4.220;2022-12-20T05:10:43;7.20;;;1.92;;
41323;SDS011;27073;51.128;4.220;2022-12-20T05:13:09;5.25;;;2.22;;
41323;SDS011;27073;51.128;4.220;2022-12-20T05:15:41;3.55;;;1.52;;
41323;SDS011;27073;51.128;4.220;2022-12-20T05:18:08;5.32;;;1.98;;
41323;SDS011;27073;51.128;4.220;2022-12-20T05:20:49;4.43;;;2.27;;
41323;SDS011;27073;51.128;4.220;2022-12-20T05:23:36;3.35;;;1.50;;
41323;SDS011;27073;51.128;4.220;2022-12-20T05:26:26;3.13;;;1.40;;
41323;SDS011;27073;51.128;4.220;2022-12-20T05:28:55;4.90;;;1.55;;
41323;SDS011;27073;51.128;4.220;2022-12-20T05:31:23;3.20;;;1.48;;
41323;SDS011;27073;51.128;4.220;2022-12-20T05:33:48;5.10;;;1.70;;
41323;SDS011;27073;51.128;4.220;2022-12-20T05:36:15;4.28;;;1.88;;
41323;SDS011;27073;51.128;4.220;2022-12-20T05:38:41;6.35;;;1.75;;
41323;SDS011;27073;51.128;4.220;2022-12-20T05:41:12;3.35;;;1.63;;
41323;SDS011;27073;51.128;4.220;2022-12-20T05:43:39;5.25;;;2.00;;
41323;SDS011;27073;51.128;4.220;2022-12-20T05:46:05;4.25;;;1.80;;
41323;SDS011;27073;51.128;4.220;2022-12-20T05:48:39;3.80;;;1.52;;
41323;SDS011;27073;51.128;4.220;2022-12-20T05:51:06;6.40;;;2.30;;
41323;SDS011;27073;51.128;4.220;2022-12-20T05:53:44;3.92;;;1.85;;
41323;SDS011;27073;51.128;4.220;2022-12-20T05:56:09;5.22;;;1.38;;
41323;SDS011;27073;51.128;4.220;2022-12-20T05:58:37;2.75;;;1.40;;
41323;SDS011;27073;51.128;4.220;2022-12-20T06:01:04;5.45;;;1.75;;
41323;SDS011;27073;51.128;4.220;2022-12-20T06:03:36;4.25;;;1.65;;
41323;SDS011;27073;51.128;4.220;2022-12-20T06:06:05;4.18;;;1.80;;
41323;SDS011;27073;51.128;4.220;2022-12-20T06:08:32;5.05;;;1.73;;
41323;SDS011;27073;51.128;4.220;2022-12-20T06:11:00;6.18;;;2.28;;
41323;SDS011;27073;51.128;4.220;2022-12-20T06:13:30;5.03;;;1.60;;
41323;SDS011;27073;51.128;4.220;2022-12-20T06:15:56;3.08;;;1.48;;
41323;SDS011;27073;51.128;4.220;2022-12-20T06:18:22;3.42;;;1.23;;
41323;SDS011;27073;51.128;4.220;2022-12-20T06:20:52;3.70;;;1.45;;
41323;SDS011;27073;51.128;4.220;2022-12-20T06:23:21;5.68;;;1.65;;
41323;SDS011;27073;51.128;4.220;2022-12-20T06:26:01;2.70;;;1.10;;
41323;SDS011;27073;51.128;4.220;2022-12-20T06:30:57;3.33;;;1.30;;
41323;SDS011;27073;51.128;4.220;2022-12-20T06:33:44;5.28;;;1.45;;
41323;SDS011;27073;51.128;4.220;2022-12-20T06:36:13;4.50;;;1.33;;
41323;SDS011;27073;51.128;4.220;2022-12-20T06:38:39;3.65;;;1.40;;
41323;SDS011;27073;51.128;4.220;2022-12-20T06:41:05;5.55;;;1.45;;
41323;SDS011;27073;51.128;4.220;2022-12-20T06:43:31;4.07;;;1.70;;
41323;SDS011;27073;51.128;4.220;2022-12-20T06:45:56;4.18;;;2.33;;
41323;SDS011;27073;51.128;4.220;2022-12-20T06:48:22;4.45;;;1.27;;
41323;SDS011;27073;51.128;4.220;2022-12-20T06:50:48;3.42;;;1.38;;
41323;SDS011;27073;51.128;4.220;2022-12-20T06:53:16;6.40;;;1.45;;
41323;SDS011;27073;51.128;4.220;2022-12-20T06:55:42;2.42;;;1.00;;
41323;SDS011;27073;51.128;4.220;2022-12-20T06:58:10;4.97;;;1.52;;
41323;SDS011;27073;51.128;4.220;2022-12-20T07:00:36;4.88;;;1.80;;
41323;SDS011;27073;51.128;4.220;2022-12-20T07:03:02;3.35;;;1.10;;
41323;SDS011;27073;51.128;4.220;2022-12-20T07:05:28;4.57;;;1.20;;
41323;SDS011;27073;51.128;4.220;2022-12-20T07:07:53;4.38;;;1.33;;
41323;SDS011;27073;51.128;4.220;2022-12-20T07:10:19;2.65;;;1.23;;
41323;SDS011;27073;51.128;4.220;2022-12-20T07:12:45;5.40;;;1.88;;
41323;SDS011;27073;51.128;4.220;2022-12-20T07:15:11;5.30;;;1.65;;
41323;SDS011;27073;51.128;4.220;2022-12-20T07:17:37;4.25;;;1.38;;
41323;SDS011;27073;51.128;4.220;2022-12-20T07:20:03;6.28;;;1.35;;
41323;SDS011;27073;51.128;4.220;2022-12-20T07:22:29;4.75;;;1.25;;
41323;SDS011;27073;51.128;4.220;2022-12-20T07:24:54;3.38;;;1.38;;
41323;SDS011;27073;51.128;4.220;2022-12-20T07:27:20;5.68;;;1.70;;
41323;SDS011;27073;51.128;4.220;2022-12-20T07:29:46;3.80;;;1.38;;
41323;SDS011;27073;51.128;4.220;2022-12-20T07:32:11;5.03;;;1.38;;
41323;SDS011;27073;51.128;4.220;2022-12-20T07:34:38;5.35;;;1.60;;
41323;SDS011;27073;51.128;4.220;2022-12-20T07:37:04;4.10;;;1.98;;
41323;SDS011;27073;51.128;4.220;2022-12-20T07:39:30;2.35;;;1.42;;
41323;SDS011;27073;51.128;4.220;2022-12-20T07:41:55;3.13;;;2.10;;
41323;SDS011;27073;51.128;4.220;2022-12-20T07:44:22;5.22;;;2.22;;
41323;SDS011;27073;51.128;4.220;2022-12-20T07:46:48;4.50;;;2.13;;
41323;SDS011;27073;51.128;4.220;2022-12-20T07:49:13;3.75;;;1.65;;
41323;SDS011;27073;51.128;4.220;2022-12-20T07:51:41;9.55;;;2.83;;
41323;SDS011;27073;51.128;4.220;2022-12-20T07:54:11;3.65;;;1.60;;
41323;SDS011;27073;51.128;4.220;2022-12-20T07:56:41;5.32;;;1.80;;
41323;SDS011;27073;51.128;4.220;2022-12-20T07:59:10;3.13;;;1.50;;
41323;SDS011;27073;51.128;4.220;2022-12-20T08:01:38;4.35;;;1.98;;
41323;SDS011;27073;51.128;4.220;2022-12-20T08:04:11;7.22;;;1.77;;
41323;SDS011;27073;51.128;4.220;2022-12-20T08:06:40;7.72;;;2.67;;
41323;SDS011;27073;51.128;4.220;2022-12-20T08:09:06;3.55;;;1.95;;
41323;SDS011;27073;51.128;4.220;2022-12-20T08:11:35;5.15;;;2.10;;
41323;SDS011;27073;51.128;4.220;2022-12-20T08:14:01;4.47;;;2.17;;
41323;SDS011;27073;51.128;4.220;2022-12-20T08:16:28;6.78;;;2.78;;
41323;SDS011;27073;51.128;4.220;2022-12-20T08:18:55;5.60;;;2.17;;
41323;SDS011;27073;51.128;4.220;2022-12-20T08:21:21;5.80;;;2.30;;
41323;SDS011;27073;51.128;4.220;2022-12-20T08:23:46;4.88;;;2.30;;
41323;SDS011;27073;51.128;4.220;2022-12-20T08:26:12;9.07;;;2.65;;
41323;SDS011;27073;51.128;4.220;2022-12-20T08:28:38;6.13;;;2.08;;
41323;SDS011;27073;51.128;4.220;2022-12-20T08:31:05;6.63;;;2.42;;
41323;SDS011;27073;51.128;4.220;2022-12-20T08:33:32;6.28;;;2.90;;
41323;SDS011;27073;51.128;4.220;2022-12-20T08:35:59;7.32;;;2.30;;
41323;SDS011;27073;51.128;4.220;2022-12-20T08:38:27;5.32;;;2.08;;
41323;SDS011;27073;51.128;4.220;2022-12-20T08:40:55;6.32;;;2.20;;
41323;SDS011;27073;51.128;4.220;2022-12-20T08:43:25;5.68;;;2.20;;
41323;SDS011;27073;51.128;4.220;2022-12-20T08:45:52;6.20;;;1.92;;
41323;SDS011;27073;51.128;4.220;2022-12-20T08:48:19;5.05;;;2.30;;
41323;SDS011;27073;51.128;4.220;2022-12-20T08:50:46;4.30;;;1.98;;
41323;SDS011;27073;51.128;4.220;2022-12-20T08:53:12;7.20;;;2.60;;
41323;SDS011;27073;51.128;4.220;2022-12-20T08:55:37;8.38;;;2.53;;
41323;SDS011;27073;51.128;4.220;2022-12-20T08:58:04;4.20;;;2.05;;
41323;SDS011;27073;51.128;4.220;2022-12-20T09:00:30;6.28;;;2.13;;
41323;SDS011;27073;51.128;4.220;2022-12-20T09:02:55;7.55;;;2.20;;
41323;SDS011;27073;51.128;4.220;2022-12-20T09:05:21;5.28;;;1.80;;
41323;SDS011;27073;51.128;4.220;2022-12-20T09:07:47;5.68;;;2.03;;
41323;SDS011;27073;51.128;4.220;2022-12-20T09:10:12;7.00;;;2.42;;
41323;SDS011;27073;51.128;4.220;2022-12-20T09:12:38;3.97;;;2.10;;
41323;SDS011;27073;51.128;4.220;2022-12-20T09:15:04;4.80;;;2.40;;
41323;SDS011;27073;51.128;4.220;2022-12-20T09:17:31;7.45;;;2.13;;
41323;SDS011;27073;51.128;4.220;2022-12-20T09:19:56;6.13;;;2.28;;
41323;SDS011;27073;51.128;4.220;2022-12-20T09:22:22;4.53;;;2.10;;
41323;SDS011;27073;51.128;4.220;2022-12-20T09:24:47;6.03;;;2.55;;
41323;SDS011;27073;51.128;4.220;2022-12-20T09:27:13;6.50;;;2.70;;
41323;SDS011;27073;51.128;4.220;2022-12-20T09:29:39;4.50;;;2.55;;
41323;SDS011;27073;51.128;4.220;2022-12-20T09:32:05;4.95;;;2.22;;
41323;SDS011;27073;51.128;4.220;2022-12-20T09:34:31;5.18;;;2.17;;
41323;SDS011;27073;51.128;4.220;2022-12-20T09:36:56;4.28;;;2.15;;
41323;SDS011;27073;51.128;4.220;2022-12-20T09:39:22;5.72;;;2.67;;
41323;SDS011;27073;51.128;4.220;2022-12-20T09:41:48;4.22;;;2.13;;
41323;SDS011;27073;51.128;4.220;2022-12-20T09:44:35;5.35;;;2.45;;
41323;SDS011;27073;51.128;4.220;2022-12-20T09:47:20;7.80;;;2.10;;
41323;SDS011;27073;51.128;4.220;2022-12-20T09:49:50;6.95;;;2.53;;
41323;SDS011;27073;51.128;4.220;2022-12-20T09:53:03;7.20;;;2.28;;
41323;SDS011;27073;51.128;4.220;2022-12-20T09:58:02;4.93;;;1.90;;
41323;SDS011;27073;51.128;4.220;2022-12-20T10:00:33;9.23;;;2.85;;
41323;SDS011;27073;51.128;4.220;2022-12-20T10:03:10;4.47;;;2.30;;
41323;SDS011;27073;51.128;4.220;2022-12-20T10:05:50;6.15;;;2.05;;
41323;SDS011;27073;51.128;4.220;2022-12-20T10:16:54;3.30;;;2.30;;
41323;SDS011;27073;51.128;4.220;2022-12-20T10:25:00;8.80;;;3.33;;
41323;SDS011;27073;51.128;4.220;2022-12-20T10:27:33;4.70;;;2.60;;
41323;SDS011;27073;51.128;4.220;2022-12-20T10:30:04;6.70;;;3.20;;
41323;SDS011;27073;51.128;4.220;2022-12-20T10:32:49;9.55;;;3.60;;
41323;SDS011;27073;51.128;4.220;2022-12-20T10:38:05;5.13;;;2.20;;
41323;SDS011;27073;51.128;4.220;2022-12-20T10:40:44;3.63;;;2.33;;
41323;SDS011;27073;51.128;4.220;2022-12-20T10:43:23;4.63;;;2.85;;
41323;SDS011;27073;51.128;4.220;2022-12-20T10:46:05;5.25;;;3.00;;
41323;SDS011;27073;51.128;4.220;2022-12-20T10:51:02;6.10;;;2.70;;
41323;SDS011;27073;51.128;4.220;2022-12-20T10:53:34;8.18;;;3.75;;
41323;SDS011;27073;51.128;4.220;2022-12-20T10:58:55;6.80;;;3.05;;
41323;SDS011;27073;51.128;4.220;2022-12-20T11:01:33;7.38;;;3.17;;
41323;SDS011;27073;51.128;4.220;2022-12-20T11:04:02;9.50;;;2.92;;
41323;SDS011;27073;51.128;4.220;2022-12-20T11:06:40;5.38;;;3.00;;
41323;SDS011;27073;51.128;4.220;2022-12-20T11:12:10;6.90;;;2.90;;
41323;SDS011;27073;51.128;4.220;2022-12-20T11:14:38;5.05;;;2.90;;
41323;SDS011;27073;51.128;4.220;2022-12-20T11:25:37;5.60;;;2.97;;
41323;SDS011;27073;51.128;4.220;2022-12-20T11:36:28;3.92;;;2.65;;
41323;SDS011;27073;51.128;4.220;2022-12-20T11:39:11;7.32;;;3.05;;
41323;SDS011;27073;51.128;4.220;2022-12-20T11:53:26;6.15;;;3.40;;
41323;SDS011;27073;51.128;4.220;2022-12-20T11:56:09;6.40;;;3.47;;
41323;SDS011;27073;51.128;4.220;2022-12-20T11:58:49;6.40;;;3.53;;
41323;SDS011;27073;51.128;4.220;2022-12-20T12:01:20;6.53;;;3.10;;
41323;SDS011;27073;51.128;4.220;2022-12-20T12:04:19;8.90;;;3.75;;
41323;SDS011;27073;51.128;4.220;2022-12-20T12:06:57;7.53;;;3.70;;
41323;SDS011;27073;51.128;4.220;2022-12-20T12:09:35;7.05;;;3.53;;
41323;SDS011;27073;51.128;4.220;2022-12-20T12:12:24;6.28;;;3.42;;
41323;SDS011;27073;51.128;4.220;2022-12-20T12:17:38;6.53;;;3.30;;
41323;SDS011;27073;51.128;4.220;2022-12-20T12:23:04;7.45;;;3.33;;
41323;SDS011;27073;51.128;4.220;2022-12-20T12:25:37;8.88;;;3.42;;
41323;SDS011;27073;51.128;4.220;2022-12-20T12:28:03;4.97;;;3.30;;
41323;SDS011;27073;51.128;4.220;2022-12-20T12:30:34;4.35;;;2.70;;
41323;SDS011;27073;51.128;4.220;2022-12-20T12:33:05;5.07;;;3.75;;
41323;SDS011;27073;51.128;4.220;2022-12-20T12:35:59;10.68;;;3.83;;
41323;SDS011;27073;51.128;4.220;2022-12-20T12:38:54;8.38;;;3.22;;
41323;SDS011;27073;51.128;4.220;2022-12-20T12:44:36;7.47;;;3.38;;
41323;SDS011;27073;51.128;4.220;2022-12-20T12:47:12;5.18;;;3.20;;
41323;SDS011;27073;51.128;4.220;2022-12-20T12:50:07;8.07;;;3.70;;
41323;SDS011;27073;51.128;4.220;2022-12-20T12:52:44;8.27;;;3.30;;
41323;SDS011;27073;51.128;4.220;2022-12-20T12:55:37;6.32;;;3.63;;
41323;SDS011;27073;51.128;4.220;2022-12-20T13:00:55;7.28;;;3.38;;
41323;SDS011;27073;51.128;4.220;2022-12-20T13:03:43;8.63;;;3.00;;
41323;SDS011;27073;51.128;4.220;2022-12-20T13:16:49;5.78;;;3.58;;
41323;SDS011;27073;51.128;4.220;2022-12-20T13:21:44;6.03;;;4.32;;
41323;SDS011;27073;51.128;4.220;2022-12-20T13:27:24;5.22;;;3.10;;
41323;SDS011;27073;51.128;4.220;2022-12-20T13:38:33;7.07;;;4.18;;
41323;SDS011;27073;51.128;4.220;2022-12-20T13:41:01;7.53;;;3.85;;
41323;SDS011;27073;51.128;4.220;2022-12-20T13:43:41;6.55;;;3.58;;
41323;SDS011;27073;51.128;4.220;2022-12-20T13:51:03;5.13;;;3.38;;
41323;SDS011;27073;51.128;4.220;2022-12-20T13:53:32;5.38;;;3.17;;
41323;SDS011;27073;51.128;4.220;2022-12-20T13:55:58;6.03;;;3.30;;
41323;SDS011;27073;51.128;4.220;2022-12-20T13:58:56;7.22;;;3.80;;
41323;SDS011;27073;51.128;4.220;2022-12-20T14:01:27;9.10;;;3.50;;
41323;SDS011;27073;51.128;4.220;2022-12-20T14:03:53;7.68;;;3.97;;
41323;SDS011;27073;51.128;4.220;2022-12-20T14:06:19;4.68;;;3.35;;
41323;SDS011;27073;51.128;4.220;2022-12-20T14:08:47;4.93;;;3.15;;
41323;SDS011;27073;51.128;4.220;2022-12-20T14:11:24;4.28;;;3.10;;
41323;SDS011;27073;51.128;4.220;2022-12-20T14:13:58;5.93;;;3.72;;
41323;SDS011;27073;51.128;4.220;2022-12-20T14:16:25;9.80;;;3.50;;
41323;SDS011;27073;51.128;4.220;2022-12-20T14:21:21;9.82;;;5.22;;
41323;SDS011;27073;51.128;4.220;2022-12-20T14:23:48;6.63;;;3.90;;
41323;SDS011;27073;51.128;4.220;2022-12-20T14:26:16;6.88;;;3.95;;
41323;SDS011;27073;51.128;4.220;2022-12-20T14:28:47;6.28;;;4.38;;
41323;SDS011;27073;51.128;4.220;2022-12-20T14:31:28;10.00;;;4.57;;
41323;SDS011;27073;51.128;4.220;2022-12-20T14:34:11;6.50;;;4.18;;
41323;SDS011;27073;51.128;4.220;2022-12-20T14:36:42;6.95;;;4.13;;
41323;SDS011;27073;51.128;4.220;2022-12-20T14:39:22;7.18;;;4.93;;
41323;SDS011;27073;51.128;4.220;2022-12-20T14:44:34;5.38;;;3.97;;
41323;SDS011;27073;51.128;4.220;2022-12-20T14:47:02;6.63;;;4.25;;
41323;SDS011;27073;51.128;4.220;2022-12-20T14:49:39;9.38;;;4.70;;
41323;SDS011;27073;51.128;4.220;2022-12-20T14:52:20;7.15;;;4.53;;
41323;SDS011;27073;51.128;4.220;2022-12-20T14:57:24;7.43;;;5.47;;
41323;SDS011;27073;51.128;4.220;2022-12-20T15:02:44;9.02;;;5.45;;
41323;SDS011;27073;51.128;4.220;2022-12-20T15:13:44;10.32;;;5.50;;
41323;SDS011;27073;51.128;4.220;2022-12-20T15:18:43;10.70;;;6.43;;
41323;SDS011;27073;51.128;4.220;2022-12-20T15:21:28;8.15;;;6.00;;
41323;SDS011;27073;51.128;4.220;2022-12-20T15:24:00;11.63;;;7.32;;
41323;SDS011;27073;51.128;4.220;2022-12-20T15:26:34;12.02;;;7.50;;
41323;SDS011;27073;51.128;4.220;2022-12-20T15:29:00;12.80;;;7.53;;
41323;SDS011;27073;51.128;4.220;2022-12-20T15:31:27;12.48;;;7.80;;
41323;SDS011;27073;51.128;4.220;2022-12-20T15:33:54;8.40;;;6.57;;
41323;SDS011;27073;51.128;4.220;2022-12-20T15:36:23;9.48;;;7.05;;
41323;SDS011;27073;51.128;4.220;2022-12-20T15:38:53;8.90;;;6.18;;
41323;SDS011;27073;51.128;4.220;2022-12-20T15:43:52;7.53;;;6.40;;
41323;SDS011;27073;51.128;4.220;2022-12-20T15:46:24;10.68;;;7.90;;
41323;SDS011;27073;51.128;4.220;2022-12-20T15:48:50;12.23;;;7.65;;
41323;SDS011;27073;51.128;4.220;2022-12-20T15:51:18;13.68;;;7.78;;
41323;SDS011;27073;51.128;4.220;2022-12-20T15:53:49;9.70;;;6.97;;
41323;SDS011;27073;51.128;4.220;2022-12-20T15:56:16;10.77;;;7.18;;
41323;SDS011;27073;51.128;4.220;2022-12-20T15:58:45;7.82;;;6.72;;
41323;SDS011;27073;51.128;4.220;2022-12-20T16:01:17;9.63;;;6.40;;
41323;SDS011;27073;51.128;4.220;2022-12-20T16:03:48;7.97;;;6.13;;
41323;SDS011;27073;51.128;4.220;2022-12-20T16:06:13;8.95;;;7.50;;
41323;SDS011;27073;51.128;4.220;2022-12-20T16:08:39;9.70;;;7.13;;
41323;SDS011;27073;51.128;4.220;2022-12-20T16:11:06;11.02;;;7.60;;
41323;SDS011;27073;51.128;4.220;2022-12-20T16:13:45;11.23;;;8.20;;
41323;SDS011;27073;51.128;4.220;2022-12-20T16:16:18;7.97;;;7.13;;
41323;SDS011;27073;51.128;4.220;2022-12-20T16:18:46;8.73;;;7.20;;
41323;SDS011;27073;51.128;4.220;2022-12-20T16:24:15;8.70;;;6.90;;
41323;SDS011;27073;51.128;4.220;2022-12-20T16:26:44;11.48;;;6.90;;
41323;SDS011;27073;51.128;4.220;2022-12-20T16:29:11;8.43;;;7.32;;
41323;SDS011;27073;51.128;4.220;2022-12-20T16:31:37;9.07;;;7.40;;
41323;SDS011;27073;51.128;4.220;2022-12-20T16:34:05;10.50;;;7.40;;
41323;SDS011;27073;51.128;4.220;2022-12-20T16:36:34;8.93;;;7.95;;
41323;SDS011;27073;51.128;4.220;2022-12-20T16:38:59;11.18;;;8.27;;
41323;SDS011;27073;51.128;4.220;2022-12-20T16:41:26;9.35;;;8.02;;
41323;SDS011;27073;51.128;4.220;2022-12-20T16:43:55;12.88;;;8.85;;
41323;SDS011;27073;51.128;4.220;2022-12-20T16:46:23;12.77;;;8.52;;
41323;SDS011;27073;51.128;4.220;2022-12-20T16:48:51;9.25;;;8.13;;
41323;SDS011;27073;51.128;4.220;2022-12-20T16:54:03;10.02;;;8.05;;
41323;SDS011;27073;51.128;4.220;2022-12-20T16:56:30;8.00;;;7.00;;
41323;SDS011;27073;51.128;4.220;2022-12-20T16:58:57;8.55;;;7.70;;
41323;SDS011;27073;51.128;4.220;2022-12-20T17:01:27;10.93;;;8.48;;
41323;SDS011;27073;51.128;4.220;2022-12-20T17:03:56;8.65;;;7.75;;
41323;SDS011;27073;51.128;4.220;2022-12-20T17:06:22;10.75;;;7.70;;
41323;SDS011;27073;51.128;4.220;2022-12-20T17:08:48;10.15;;;7.55;;
41323;SDS011;27073;51.128;4.220;2022-12-20T17:11:15;8.70;;;7.85;;
41323;SDS011;27073;51.128;4.220;2022-12-20T17:13:42;10.52;;;8.60;;
41323;SDS011;27073;51.128;4.220;2022-12-20T17:16:10;8.85;;;7.85;;
41323;SDS011;27073;51.128;4.220;2022-12-20T17:18:42;9.35;;;8.38;;
41323;SDS011;27073;51.128;4.220;2022-12-20T17:23:52;10.82;;;9.73;;
41323;SDS011;27073;51.128;4.220;2022-12-20T17:26:22;13.88;;;11.13;;
41323;SDS011;27073;51.128;4.220;2022-12-20T17:28:50;9.50;;;8.40;;
41323;SDS011;27073;51.128;4.220;2022-12-20T17:31:27;9.90;;;9.00;;
41323;SDS011;27073;51.128;4.220;2022-12-20T17:33:54;9.50;;;8.60;;